首页
METAR-TAF:

METAR-TAF

机场 :

Cartersville Airport

Cartersville, 喬治亞, 美国

纬度: 34-07-42N, 经度: 084-50-50W, 海拔: 233米

当前天气观测

该预报发布于39分钟前的16:53 UTC
静风
温度 7°C
湿度 57%
气压 1024 hPa
能見度: 16.1公里
天空无云

METAR: KVPC 121653Z AUTO 00000KT 10SM CLR 07/M01 A3025 RMK AO2 SLP243 T00671011

时间: 12:32 (17:32 UTC)


TAF: 丢失

超过4000个机场的气象观测和天气预报(METAR&TAF报告)。

可查询的气象台以黄色和红色小点在地图上表示。

将鼠标移到小点上方,可查看气象台名称。

然后点击查看天气观测和预报。

如需切换地图:点击带黑十字的绿色按钮放大地图;点击带横线的绿色按钮缩小地图;或者点击绿色箭头查看邻近地区的地图。


METAR-TAF: